createdAt,value
2019-05-13T00:01:17.988Z,43.45
2019-05-13T00:03:55.136Z,43.34
2019-05-13T00:06:30.371Z,43.56
2019-05-13T00:09:08.111Z,43.73
2019-05-13T00:11:43.832Z,43.79
2019-05-13T00:14:24.003Z,43.86
2019-05-13T00:16:59.609Z,44.17
2019-05-13T00:19:34.702Z,44.25
2019-05-13T00:22:09.817Z,44.22
2019-05-13T00:24:45.058Z,44.31
2019-05-13T00:27:23.500Z,44.33
2019-05-13T00:29:58.624Z,44.45
2019-05-13T00:32:33.790Z,44.53
2019-05-13T00:35:09.153Z,44.65
2019-05-13T00:37:44.628Z,44.74
2019-05-13T00:40:24.070Z,44.80
2019-05-13T00:42:59.407Z,45.24
2019-05-13T00:45:34.871Z,45.39
2019-05-13T00:48:10.143Z,45.46
2019-05-13T00:50:47.332Z,45.65
2019-05-13T00:53:23.735Z,45.79
2019-05-13T00:56:00.385Z,45.98
2019-05-13T00:58:35.671Z,46.22
2019-05-13T01:01:13.966Z,46.65
2019-05-13T01:03:49.457Z,46.82
2019-05-13T01:06:26.032Z,47.36
2019-05-13T01:09:01.184Z,47.69
2019-05-13T01:11:37.178Z,48.08
2019-05-13T01:14:14.321Z,48.43
2019-05-13T01:16:50.389Z,48.55
2019-05-13T01:19:25.743Z,48.89
2019-05-13T01:22:03.244Z,49.17
2019-05-13T01:24:37.846Z,49.37
2019-05-13T01:27:13.998Z,49.59
2019-05-13T01:29:49.453Z,50.10
2019-05-13T01:32:24.556Z,50.39
2019-05-13T01:34:59.816Z,50.75
2019-05-13T01:37:42.351Z,50.85
2019-05-13T01:40:14.183Z,51.15
2019-05-13T01:42:49.306Z,51.36
2019-05-13T01:45:24.478Z,51.76
2019-05-13T01:47:59.742Z,51.97
2019-05-13T01:50:34.968Z,52.13
2019-05-13T01:53:10.130Z,52.38
2019-05-13T01:55:45.302Z,52.76
2019-05-13T01:58:23.748Z,53.09
2019-05-13T02:00:59.146Z,53.36
2019-05-13T02:03:34.611Z,53.51
2019-05-13T02:06:09.921Z,53.75
2019-05-13T02:08:45.261Z,53.83
2019-05-13T02:11:20.523Z,54.10
2019-05-13T02:13:55.711Z,54.26
2019-05-13T02:16:30.816Z,54.37
2019-05-13T02:19:06.163Z,54.45
2019-05-13T02:21:43.732Z,54.75
2019-05-13T02:24:19.217Z,54.95
2019-05-13T02:26:54.522Z,55.19
2019-05-13T02:29:29.873Z,55.27
2019-05-13T02:32:05.005Z,55.50
2019-05-13T02:34:43.702Z,55.65
2019-05-13T02:37:22.895Z,55.84
2019-05-13T02:39:56.356Z,56.08
2019-05-13T02:42:32.848Z,56.44
2019-05-13T02:45:08.231Z,56.73
2019-05-13T02:47:44.597Z,56.83
2019-05-13T02:50:22.381Z,57.06
2019-05-13T02:52:57.780Z,57.20
2019-05-13T02:55:33.178Z,57.53
2019-05-13T02:58:08.372Z,57.67
2019-05-13T03:00:44.313Z,57.88
2019-05-13T03:03:23.132Z,58.18
2019-05-13T03:05:57.509Z,58.23
2019-05-13T03:08:48.330Z,58.33
2019-05-13T03:11:14.881Z,58.43
2019-05-13T03:13:52.983Z,58.58
2019-05-13T03:16:32.623Z,58.74
2019-05-13T03:19:08.129Z,58.86
2019-05-13T03:21:43.266Z,59.00
2019-05-13T03:24:18.599Z,59.19
2019-05-13T03:26:53.741Z,59.45
2019-05-13T03:29:33.131Z,59.53
2019-05-13T03:32:08.122Z,59.60
2019-05-13T03:34:45.289Z,59.98
2019-05-13T03:37:26.042Z,60.18
2019-05-13T03:40:03.059Z,60.19
2019-05-13T03:42:43.051Z,60.64
2019-05-13T03:45:21.884Z,60.48
2019-05-13T03:47:56.738Z,60.71
2019-05-13T03:50:34.543Z,60.68
2019-05-13T03:53:08.824Z,60.81
2019-05-13T03:55:45.169Z,60.86
2019-05-13T03:58:24.240Z,60.68
2019-05-13T04:01:02.494Z,60.40
2019-05-13T04:03:36.764Z,60.52
2019-05-13T04:06:13.496Z,60.48
2019-05-13T04:08:49.500Z,60.43
2019-05-13T04:11:25.981Z,60.21
2019-05-13T04:14:03.301Z,60.23
2019-05-13T04:16:38.537Z,60.24
2019-05-13T04:19:14.917Z,60.22
2019-05-13T04:21:52.626Z,60.11
2019-05-13T04:24:28.087Z,60.07
2019-05-13T04:27:03.415Z,59.82
2019-05-13T04:29:38.855Z,59.90
2019-05-13T04:32:14.054Z,59.82
2019-05-13T04:34:52.656Z,59.95
2019-05-13T04:37:26.589Z,60.05
2019-05-13T04:40:03.884Z,59.93
2019-05-13T04:42:42.566Z,60.09
2019-05-13T04:45:16.379Z,60.12
2019-05-13T04:47:53.845Z,60.23
2019-05-13T04:50:32.649Z,60.02
2019-05-13T04:53:07.101Z,60.16
2019-05-13T04:55:44.159Z,59.98
2019-05-13T04:58:23.162Z,60.03
2019-05-13T05:01:14.124Z,60.31
2019-05-13T05:03:57.559Z,60.18
2019-05-13T05:06:52.761Z,60.14
2019-05-13T05:09:40.316Z,60.13
2019-05-13T05:12:35.382Z,60.00
2019-05-13T05:15:23.526Z,59.82
2019-05-13T05:18:07.312Z,59.78
2019-05-13T05:20:49.274Z,59.73
2019-05-13T05:23:31.950Z,59.46
2019-05-13T05:26:31.487Z,59.37
2019-05-13T05:29:28.968Z,59.37
2019-05-13T05:32:26.409Z,59.17
2019-05-13T05:35:18.335Z,59.30
2019-05-13T05:38:05.016Z,59.25
2019-05-13T05:40:42.481Z,59.06
2019-05-13T05:43:18.495Z,58.80
2019-05-13T05:45:54.247Z,58.71
2019-05-13T05:48:32.277Z,58.43
2019-05-13T05:51:09.343Z,58.12
2019-05-13T05:53:45.163Z,58.02
2019-05-13T05:56:21.998Z,57.60
2019-05-13T05:59:02.765Z,57.37
2019-05-13T06:01:37.577Z,57.35
2019-05-13T06:04:12.807Z,57.19
2019-05-13T06:06:48.860Z,56.96
2019-05-13T06:09:27.234Z,57.12
2019-05-13T06:12:02.855Z,56.95
2019-05-13T06:14:42.297Z,56.58
2019-05-13T06:17:17.231Z,56.28
2019-05-13T06:19:52.434Z,55.79
2019-05-13T06:22:28.067Z,55.70
2019-05-13T06:25:03.706Z,55.26
2019-05-13T06:27:42.217Z,55.28
2019-05-13T06:30:18.111Z,55.21
2019-05-13T06:32:55.326Z,54.90
2019-05-13T06:35:32.314Z,54.82
2019-05-13T06:38:11.747Z,54.58
2019-05-13T06:40:59.370Z,54.25
2019-05-13T06:43:23.648Z,53.78
2019-05-13T06:45:58.961Z,53.39
2019-05-13T06:48:34.203Z,53.17
2019-05-13T06:51:11.728Z,53.10
2019-05-13T06:53:55.045Z,52.88
2019-05-13T06:56:37.910Z,52.30
2019-05-13T06:59:15.934Z,52.01
2019-05-13T07:01:51.474Z,51.13
2019-05-13T07:04:28.893Z,50.83
2019-05-13T07:07:13.083Z,50.10
2019-05-13T07:09:45.736Z,48.77
2019-05-13T07:12:22.970Z,48.45
2019-05-13T07:14:59.379Z,47.48
2019-05-13T07:20:34.730Z,46.16
2019-05-13T07:23:12.399Z,46.07
2019-05-13T07:25:52.460Z,45.87
2019-05-13T07:28:27.716Z,45.07
2019-05-13T07:31:07.413Z,43.30
2019-05-13T07:33:42.789Z,39.22
2019-05-13T07:36:22.673Z,35.92
2019-05-13T07:39:01.406Z,33.72
2019-05-13T07:41:42.199Z,32.26
2019-05-13T07:44:16.585Z,30.78
2019-05-13T07:46:54.324Z,27.40
2019-05-13T07:49:31.590Z,26.66
2019-05-13T07:52:07.256Z,25.37
2019-05-13T07:54:43.029Z,24.91
2019-05-13T07:57:18.476Z,24.01
2019-05-13T08:00:02.021Z,22.57
2019-05-13T08:02:38.817Z,22.57
2019-05-13T08:05:17.874Z,20.95
2019-05-13T08:07:54.262Z,19.79
2019-05-13T08:10:33.739Z,20.46
2019-05-13T08:13:11.651Z,18.45
2019-05-13T08:15:54.105Z,17.43
2019-05-13T08:18:26.437Z,17.65
2019-05-13T08:21:13.800Z,19.10
2019-05-13T08:23:52.715Z,18.68
2019-05-13T08:26:32.263Z,17.20
2019-05-13T08:29:12.563Z,16.65
2019-05-13T08:31:48.017Z,16.62
2019-05-13T08:34:28.180Z,16.98
2019-05-13T08:37:13.857Z,16.07
2019-05-13T08:39:52.213Z,16.00
2019-05-13T08:42:29.248Z,16.45
2019-05-13T08:45:12.067Z,17.56
2019-05-13T08:47:48.035Z,21.41
2019-05-13T08:50:23.623Z,23.36
2019-05-13T08:52:59.077Z,24.16
2019-05-13T08:55:38.111Z,22.59
2019-05-13T08:58:13.354Z,22.04
2019-05-13T09:01:02.160Z,20.21
2019-05-13T09:03:41.440Z,20.36
2019-05-13T09:06:31.235Z,21.30
2019-05-13T09:09:11.326Z,21.10
2019-05-13T09:11:51.417Z,21.50
2019-05-13T09:14:27.886Z,22.17
2019-05-13T09:17:03.287Z,22.07
2019-05-13T09:19:42.364Z,21.96
2019-05-13T09:22:17.946Z,22.71
2019-05-13T09:24:53.880Z,23.00
2019-05-13T09:27:31.894Z,22.17
2019-05-13T09:30:07.914Z,23.18
2019-05-13T09:32:43.806Z,24.59
2019-05-13T09:35:19.415Z,26.11
2019-05-13T09:37:54.722Z,27.70
2019-05-13T09:40:31.443Z,26.30
2019-05-13T09:43:06.768Z,23.54
2019-05-13T09:45:42.144Z,22.85
2019-05-13T09:48:18.236Z,24.02
2019-05-13T09:50:54.400Z,25.08
2019-05-13T09:53:29.590Z,25.97
2019-05-13T09:56:05.028Z,26.20
2019-05-13T09:58:42.098Z,26.45
2019-05-13T10:01:18.507Z,27.65
2019-05-13T10:03:58.396Z,27.04
2019-05-13T10:06:34.871Z,26.10
2019-05-13T10:09:12.535Z,22.82
2019-05-13T10:11:47.770Z,19.45
2019-05-13T10:14:23.284Z,18.03
2019-05-13T10:16:58.583Z,17.95
2019-05-13T10:19:41.703Z,19.10
2019-05-13T10:22:25.707Z,20.95
2019-05-13T10:25:06.325Z,23.66
2019-05-13T10:27:42.087Z,25.23
2019-05-13T10:30:22.347Z,25.87
2019-05-13T10:32:59.556Z,24.39
2019-05-13T10:35:36.667Z,23.31
2019-05-13T10:38:13.469Z,21.74
2019-05-13T10:40:52.012Z,19.75
2019-05-13T10:43:31.454Z,18.40
2019-05-13T10:46:04.953Z,20.02
2019-05-13T10:48:42.214Z,21.85
2019-05-13T10:51:18.811Z,20.81
2019-05-13T10:53:59.436Z,18.21
2019-05-13T10:56:32.940Z,15.21
2019-05-13T10:59:12.355Z,15.94
2019-05-13T11:01:48.934Z,15.74
2019-05-13T11:04:25.502Z,15.79
2019-05-13T11:07:03.343Z,14.58
2019-05-13T11:09:41.761Z,14.30
2019-05-13T11:12:17.646Z,14.24
2019-05-13T11:14:55.196Z,15.66
2019-05-13T11:17:31.260Z,17.92
2019-05-13T11:20:13.599Z,19.20
2019-05-13T11:22:49.040Z,20.47
2019-05-13T11:25:24.338Z,20.08
2019-05-13T11:28:01.759Z,18.56
2019-05-13T11:30:37.468Z,17.36
2019-05-13T11:33:16.740Z,16.41
2019-05-13T11:35:53.074Z,18.40
2019-05-13T11:38:32.658Z,19.95
2019-05-13T11:41:07.682Z,21.17
2019-05-13T11:43:45.349Z,20.71
2019-05-13T11:46:22.518Z,22.00
2019-05-13T11:48:58.034Z,22.55
2019-05-13T11:51:33.207Z,20.57
2019-05-13T11:54:08.781Z,17.09
2019-05-13T11:56:50.566Z,14.73
2019-05-13T11:59:29.106Z,14.03
2019-05-13T12:02:05.019Z,13.33
2019-05-13T12:04:43.232Z,13.01
2019-05-13T12:07:18.801Z,12.87
2019-05-13T12:10:02.635Z,12.65
2019-05-13T12:12:44.046Z,12.11
2019-05-13T12:15:30.718Z,11.91
2019-05-13T12:17:57.995Z,10.92
2019-05-13T12:20:35.191Z,10.53
2019-05-13T12:23:15.180Z,9.99
2019-05-13T12:25:53.021Z,9.78
2019-05-13T12:28:29.506Z,11.09
2019-05-13T12:31:08.015Z,11.25
2019-05-13T12:33:45.919Z,12.44
2019-05-13T12:36:24.266Z,13.57
2019-05-13T12:39:03.214Z,14.11
2019-05-13T12:41:38.955Z,14.43
2019-05-13T12:44:16.388Z,15.53
2019-05-13T12:46:54.613Z,15.86
2019-05-13T12:49:33.562Z,15.67
2019-05-13T12:52:07.890Z,14.27
2019-05-13T12:54:45.487Z,13.06
2019-05-13T12:57:23.087Z,12.75
2019-05-13T13:00:04.208Z,12.68
2019-05-13T13:02:50.400Z,13.42
2019-05-13T13:05:26.553Z,13.45
2019-05-13T13:08:23.984Z,13.96
2019-05-13T13:10:42.742Z,14.55
2019-05-13T13:13:52.589Z,15.93
2019-05-13T13:16:03.856Z,17.73
2019-05-13T13:18:43.214Z,18.30
2019-05-13T13:21:37.956Z,19.30
2019-05-13T13:24:15.368Z,19.03
2019-05-13T13:26:53.429Z,16.79
2019-05-13T13:29:34.214Z,15.99
2019-05-13T13:32:13.651Z,15.12
2019-05-13T13:34:54.843Z,13.51
2019-05-13T13:37:34.957Z,14.25
2019-05-13T13:40:28.178Z,15.44
2019-05-13T13:43:05.653Z,15.98
2019-05-13T13:46:06.622Z,16.78
2019-05-13T13:48:25.600Z,18.41
2019-05-13T13:51:04.045Z,19.48
2019-05-13T13:53:49.080Z,21.02
2019-05-13T13:56:25.761Z,21.97
2019-05-13T13:59:04.363Z,22.36
2019-05-13T14:01:54.415Z,23.05
2019-05-13T14:04:29.743Z,22.82
2019-05-13T14:07:31.294Z,21.11
2019-05-13T14:09:43.726Z,21.51
2019-05-13T14:15:22.131Z,21.00
2019-05-13T14:18:06.063Z,20.53
2019-05-13T14:20:46.443Z,19.80
2019-05-13T14:26:33.325Z,20.14
2019-05-13T14:29:15.657Z,20.69
2019-05-13T14:31:57.473Z,20.71
2019-05-13T14:34:42.343Z,21.26
2019-05-13T14:37:31.914Z,22.51
2019-05-13T14:40:22.424Z,25.00
2019-05-13T14:43:05.798Z,27.01
2019-05-13T14:45:55.170Z,27.00
2019-05-13T14:48:47.921Z,27.03
2019-05-13T14:51:29.155Z,23.36
2019-05-13T14:54:12.311Z,20.25
2019-05-13T14:57:02.156Z,19.48
2019-05-13T14:59:37.986Z,20.82
2019-05-13T15:02:17.723Z,20.91
2019-05-13T15:04:54.499Z,21.36
2019-05-13T15:10:41.978Z,22.39
2019-05-13T15:13:31.958Z,23.51
2019-05-13T15:16:22.452Z,24.12
2019-05-13T15:19:11.959Z,25.04
2019-05-13T15:21:53.438Z,25.16
2019-05-13T15:24:35.642Z,25.24
2019-05-13T15:27:13.769Z,25.05
2019-05-13T15:29:51.629Z,24.35
2019-05-13T15:32:28.797Z,22.44
2019-05-13T15:35:10.083Z,20.80
2019-05-13T15:37:45.169Z,21.32
2019-05-13T15:40:31.321Z,21.77
2019-05-13T15:43:14.507Z,22.87
2019-05-13T15:45:51.770Z,22.17
2019-05-13T15:48:27.854Z,22.86
2019-05-13T15:51:06.635Z,22.31
2019-05-13T15:56:41.320Z,22.52
2019-05-13T15:59:21.560Z,21.74
2019-05-13T16:02:18.788Z,19.38
2019-05-13T16:04:50.044Z,18.29
2019-05-13T16:07:21.964Z,18.58
2019-05-13T16:09:57.624Z,19.33
2019-05-13T16:12:33.960Z,20.20
2019-05-13T16:15:14.698Z,21.55
2019-05-13T16:17:47.589Z,22.71
2019-05-13T16:20:22.831Z,24.58
2019-05-13T16:23:02.358Z,26.28
2019-05-13T16:25:37.284Z,27.15
2019-05-13T16:28:16.172Z,27.68
2019-05-13T16:30:51.694Z,28.20
2019-05-13T16:33:35.360Z,28.64
2019-05-13T16:36:12.723Z,29.12
2019-05-13T16:38:49.996Z,29.34
2019-05-13T16:41:25.366Z,29.24
2019-05-13T16:44:02.331Z,29.05
2019-05-13T16:46:38.645Z,29.31
2019-05-13T16:49:33.352Z,29.07
2019-05-13T16:52:08.530Z,29.16
2019-05-13T16:54:54.372Z,29.50
2019-05-13T16:57:36.605Z,30.04
2019-05-13T17:00:15.960Z,30.07
2019-05-13T17:03:02.496Z,30.07
2019-05-13T17:05:42.035Z,30.05
2019-05-13T17:08:23.054Z,29.93
2019-05-13T17:11:02.160Z,29.90
2019-05-13T17:13:36.729Z,30.00
2019-05-13T17:16:16.313Z,30.33
2019-05-13T17:19:04.971Z,30.76
2019-05-13T17:21:46.485Z,31.32
2019-05-13T17:24:22.681Z,31.57
2019-05-13T17:27:03.811Z,31.50
2019-05-13T17:29:41.798Z,31.54
2019-05-13T17:32:31.159Z,31.93
2019-05-13T17:38:36.782Z,31.75
2019-05-13T17:41:26.239Z,31.95
2019-05-13T17:43:59.495Z,32.03
2019-05-13T17:46:35.950Z,31.09
2019-05-13T17:49:11.917Z,30.97
2019-05-13T17:51:54.422Z,31.33
2019-05-13T17:54:31.800Z,30.46
2019-05-13T17:57:08.497Z,30.58
2019-05-13T17:59:45.140Z,31.14
2019-05-13T18:02:22.172Z,31.21
2019-05-13T18:05:03.533Z,31.55
2019-05-13T18:07:41.938Z,30.94
2019-05-13T18:10:25.542Z,31.14
2019-05-13T18:13:03.881Z,30.76
2019-05-13T18:15:39.906Z,30.98
2019-05-13T18:18:40.553Z,31.61
2019-05-13T18:20:55.562Z,31.42
2019-05-13T18:23:30.852Z,31.50
2019-05-13T18:26:06.307Z,31.50
2019-05-13T18:28:42.439Z,31.73
2019-05-13T18:31:17.881Z,31.98
2019-05-13T18:33:56.596Z,32.66
2019-05-13T18:36:33.786Z,32.65
2019-05-13T18:39:12.456Z,32.97
2019-05-13T18:41:48.462Z,33.80
2019-05-13T18:44:23.868Z,34.36
2019-05-13T18:47:01.475Z,35.06
2019-05-13T18:49:36.356Z,35.78
2019-05-13T18:52:12.315Z,36.09
2019-05-13T18:54:51.411Z,37.04
2019-05-13T18:57:27.584Z,37.58
2019-05-13T19:00:02.741Z,38.11
2019-05-13T19:02:46.659Z,38.79
2019-05-13T19:05:35.698Z,39.00
2019-05-13T19:08:12.851Z,39.27
2019-05-13T19:11:07.176Z,39.93
2019-05-13T19:13:58.123Z,40.43
2019-05-13T19:17:07.247Z,40.73
2019-05-13T19:19:45.004Z,41.32
2019-05-13T19:22:24.039Z,41.15
2019-05-13T19:25:06.747Z,41.45
2019-05-13T19:30:56.951Z,42.05
2019-05-13T19:33:33.019Z,42.11
2019-05-13T19:36:17.116Z,42.22
2019-05-13T19:39:27.420Z,42.14
2019-05-13T19:42:23.991Z,42.55
2019-05-13T19:48:32.655Z,43.37
2019-05-13T19:51:07.890Z,43.59
2019-05-13T19:53:44.898Z,43.69
2019-05-13T19:56:21.389Z,43.54
2019-05-13T19:58:57.618Z,43.59
2019-05-13T20:01:33.196Z,43.57
2019-05-13T20:06:47.779Z,44.21
2019-05-13T20:09:52.096Z,44.33
2019-05-13T20:12:31.221Z,44.51
2019-05-13T20:15:19.072Z,44.58
2019-05-13T20:17:55.437Z,45.09
2019-05-13T20:20:42.811Z,44.39
2019-05-13T20:23:21.851Z,44.33
2019-05-13T20:26:03.536Z,44.35
2019-05-13T20:28:41.845Z,44.60
2019-05-13T20:31:18.268Z,44.96
2019-05-13T20:33:55.376Z,45.24
2019-05-13T20:36:32.380Z,45.42
2019-05-13T20:39:11.458Z,45.77
2019-05-13T20:41:45.862Z,46.10
2019-05-13T20:44:22.298Z,46.43
2019-05-13T20:46:58.124Z,46.78
2019-05-13T20:49:33.394Z,47.06
2019-05-13T20:52:12.746Z,47.35
2019-05-13T20:54:47.500Z,48.73
2019-05-13T20:57:28.629Z,49.00
2019-05-13T21:00:06.357Z,48.04
2019-05-13T21:02:43.809Z,49.44
2019-05-13T21:05:21.782Z,50.15
2019-05-13T21:07:58.468Z,49.74
2019-05-13T21:10:35.051Z,49.86
2019-05-13T21:13:12.185Z,49.58
2019-05-13T21:15:47.975Z,49.73
2019-05-13T21:18:24.044Z,50.40
2019-05-13T21:20:59.234Z,50.52
2019-05-13T21:23:35.546Z,50.92
2019-05-13T21:26:14.952Z,50.86
2019-05-13T21:28:47.649Z,50.54
2019-05-13T21:31:23.000Z,50.47
2019-05-13T21:34:02.502Z,51.10
2019-05-13T21:36:37.647Z,51.23
2019-05-13T21:39:13.924Z,51.04
2019-05-13T21:41:51.777Z,51.27
2019-05-13T21:44:29.438Z,51.24
2019-05-13T21:47:05.083Z,51.43
2019-05-13T21:49:42.392Z,51.46
2019-05-13T21:52:17.515Z,51.63
2019-05-13T21:54:52.647Z,51.83
2019-05-13T21:57:32.865Z,51.77
2019-05-13T22:00:09.440Z,51.69
2019-05-13T22:02:46.447Z,51.32
2019-05-13T22:05:22.194Z,51.31
2019-05-13T22:07:58.376Z,51.08
2019-05-13T22:10:33.484Z,51.31
2019-05-13T22:13:08.617Z,51.38
2019-05-13T22:15:43.882Z,51.39
2019-05-13T22:18:19.124Z,51.54
2019-05-13T22:20:54.263Z,51.67
2019-05-13T22:23:31.815Z,51.56
2019-05-13T22:26:06.187Z,51.55
2019-05-13T22:28:41.875Z,51.69
2019-05-13T22:31:18.123Z,51.87
2019-05-13T22:33:54.794Z,51.99
2019-05-13T22:36:31.800Z,51.91
2019-05-13T22:39:07.900Z,52.11
2019-05-13T22:41:43.493Z,52.19
2019-05-13T22:44:18.896Z,52.24
2019-05-13T22:46:54.313Z,52.02
2019-05-13T22:49:31.184Z,51.95
2019-05-13T22:52:07.552Z,51.77
2019-05-13T22:54:42.790Z,51.73
2019-05-13T22:57:21.988Z,51.57
2019-05-13T23:00:01.213Z,51.37
2019-05-13T23:02:42.392Z,51.49
2019-05-13T23:05:17.679Z,51.54
2019-05-13T23:07:55.430Z,51.79
2019-05-13T23:10:31.818Z,51.88
2019-05-13T23:13:08.374Z,52.31
2019-05-13T23:15:43.912Z,52.37
2019-05-13T23:18:23.751Z,52.77
2019-05-13T23:21:02.370Z,53.10
2019-05-13T23:23:37.811Z,53.21
2019-05-13T23:26:13.163Z,53.26
2019-05-13T23:28:52.232Z,53.43
2019-05-13T23:31:32.763Z,53.59
2019-05-13T23:34:11.937Z,53.61
2019-05-13T23:37:11.380Z,53.63
2019-05-13T23:39:47.816Z,53.71
2019-05-13T23:42:23.988Z,53.75
2019-05-13T23:45:00.348Z,53.82
2019-05-13T23:47:41.564Z,53.93
2019-05-13T23:50:21.569Z,54.30
2019-05-13T23:52:57.019Z,54.55
2019-05-13T23:55:32.822Z,54.63
2019-05-13T23:58:08.416Z,54.78
